sensor_id;sensor_type;location;lat;lon;timestamp;P1;durP1;ratioP1;P2;durP2;ratioP2
56297;SDS011;42208;6.376;-10.782;2022-12-07T00:01:45;29.00;;;9.70;;
56297;SDS011;42208;6.376;-10.782;2022-12-07T00:04:15;22.08;;;10.27;;
56297;SDS011;42208;6.376;-10.782;2022-12-07T00:06:46;26.27;;;10.55;;
56297;SDS011;42208;6.376;-10.782;2022-12-07T00:09:18;28.75;;;12.30;;
56297;SDS011;42208;6.376;-10.782;2022-12-07T00:11:48;46.72;;;15.85;;
56297;SDS011;42208;6.376;-10.782;2022-12-07T00:14:19;67.65;;;26.35;;
56297;SDS011;42208;6.376;-10.782;2022-12-07T00:16:50;187.30;;;64.00;;
56297;SDS011;42208;6.376;-10.782;2022-12-07T00:19:19;188.65;;;64.72;;
56297;SDS011;42208;6.376;-10.782;2022-12-07T00:21:48;125.85;;;42.55;;
56297;SDS011;42208;6.376;-10.782;2022-12-07T00:24:16;56.80;;;24.08;;
56297;SDS011;42208;6.376;-10.782;2022-12-07T00:26:45;53.55;;;21.17;;
56297;SDS011;42208;6.376;-10.782;2022-12-07T00:29:18;40.42;;;15.10;;
56297;SDS011;42208;6.376;-10.782;2022-12-07T00:31:48;36.33;;;15.80;;
56297;SDS011;42208;6.376;-10.782;2022-12-07T00:34:18;42.90;;;17.50;;
56297;SDS011;42208;6.376;-10.782;2022-12-07T00:36:49;54.40;;;21.20;;
56297;SDS011;42208;6.376;-10.782;2022-12-07T00:39:18;62.65;;;21.33;;
56297;SDS011;42208;6.376;-10.782;2022-12-07T00:41:47;82.00;;;28.42;;
56297;SDS011;42208;6.376;-10.782;2022-12-07T00:44:15;83.57;;;27.55;;
56297;SDS011;42208;6.376;-10.782;2022-12-07T00:46:43;66.88;;;24.10;;
56297;SDS011;42208;6.376;-10.782;2022-12-07T00:49:12;58.10;;;22.58;;
56297;SDS011;42208;6.376;-10.782;2022-12-07T00:51:41;54.42;;;20.25;;
56297;SDS011;42208;6.376;-10.782;2022-12-07T00:54:09;44.60;;;18.65;;
56297;SDS011;42208;6.376;-10.782;2022-12-07T00:56:37;38.17;;;15.35;;
56297;SDS011;42208;6.376;-10.782;2022-12-07T00:59:10;27.20;;;13.48;;
56297;SDS011;42208;6.376;-10.782;2022-12-07T01:01:40;31.42;;;12.93;;
56297;SDS011;42208;6.376;-10.782;2022-12-07T01:04:10;22.35;;;12.13;;
56297;SDS011;42208;6.376;-10.782;2022-12-07T01:06:38;30.55;;;13.55;;
56297;SDS011;42208;6.376;-10.782;2022-12-07T01:09:07;26.75;;;15.48;;
56297;SDS011;42208;6.376;-10.782;2022-12-07T01:11:35;31.60;;;16.95;;
56297;SDS011;42208;6.376;-10.782;2022-12-07T01:14:03;34.30;;;17.83;;
56297;SDS011;42208;6.376;-10.782;2022-12-07T01:16:32;38.92;;;20.33;;
56297;SDS011;42208;6.376;-10.782;2022-12-07T01:19:01;40.97;;;21.77;;
56297;SDS011;42208;6.376;-10.782;2022-12-07T01:21:31;44.63;;;23.25;;
56297;SDS011;42208;6.376;-10.782;2022-12-07T01:24:01;45.80;;;25.30;;
56297;SDS011;42208;6.376;-10.782;2022-12-07T01:26:31;40.85;;;23.27;;
56297;SDS011;42208;6.376;-10.782;2022-12-07T01:28:59;44.97;;;23.63;;
56297;SDS011;42208;6.376;-10.782;2022-12-07T01:31:27;43.55;;;21.42;;
56297;SDS011;42208;6.376;-10.782;2022-12-07T01:33:58;41.63;;;19.95;;
56297;SDS011;42208;6.376;-10.782;2022-12-07T01:36:29;34.80;;;20.00;;
56297;SDS011;42208;6.376;-10.782;2022-12-07T01:39:01;42.78;;;20.05;;
56297;SDS011;42208;6.376;-10.782;2022-12-07T01:41:33;35.33;;;19.98;;
56297;SDS011;42208;6.376;-10.782;2022-12-07T01:46:53;33.40;;;17.30;;
56297;SDS011;42208;6.376;-10.782;2022-12-07T01:49:37;29.85;;;17.42;;
56297;SDS011;42208;6.376;-10.782;2022-12-07T01:54:58;32.72;;;18.05;;
56297;SDS011;42208;6.376;-10.782;2022-12-07T01:57:31;31.02;;;17.83;;
56297;SDS011;42208;6.376;-10.782;2022-12-07T02:00:04;30.05;;;18.30;;
56297;SDS011;42208;6.376;-10.782;2022-12-07T02:02:51;32.83;;;19.00;;
56297;SDS011;42208;6.376;-10.782;2022-12-07T02:05:24;34.45;;;18.13;;
56297;SDS011;42208;6.376;-10.782;2022-12-07T02:07:54;31.10;;;16.70;;
56297;SDS011;42208;6.376;-10.782;2022-12-07T02:10:26;27.25;;;17.48;;
56297;SDS011;42208;6.376;-10.782;2022-12-07T02:13:01;35.40;;;20.02;;
56297;SDS011;42208;6.376;-10.782;2022-12-07T02:18:38;43.35;;;20.10;;
56297;SDS011;42208;6.376;-10.782;2022-12-07T02:35:22;53.85;;;29.98;;
56297;SDS011;42208;6.376;-10.782;2022-12-07T02:38:15;57.78;;;32.47;;
56297;SDS011;42208;6.376;-10.782;2022-12-07T02:40:51;61.78;;;32.88;;
56297;SDS011;42208;6.376;-10.782;2022-12-07T02:43:27;43.78;;;25.83;;
56297;SDS011;42208;6.376;-10.782;2022-12-07T02:46:02;45.50;;;23.20;;
56297;SDS011;42208;6.376;-10.782;2022-12-07T02:48:34;36.40;;;22.73;;
56297;SDS011;42208;6.376;-10.782;2022-12-07T02:51:06;41.17;;;23.20;;
56297;SDS011;42208;6.376;-10.782;2022-12-07T02:53:38;47.75;;;24.17;;
56297;SDS011;42208;6.376;-10.782;2022-12-07T02:59:32;45.60;;;24.17;;
56297;SDS011;42208;6.376;-10.782;2022-12-07T03:07:37;44.58;;;24.00;;
56297;SDS011;42208;6.376;-10.782;2022-12-07T03:10:17;38.35;;;23.08;;
56297;SDS011;42208;6.376;-10.782;2022-12-07T03:15:58;40.58;;;23.13;;
56297;SDS011;42208;6.376;-10.782;2022-12-07T03:18:38;48.40;;;26.52;;
56297;SDS011;42208;6.376;-10.782;2022-12-07T03:21:16;40.55;;;24.75;;
56297;SDS011;42208;6.376;-10.782;2022-12-07T03:23:49;50.20;;;28.92;;
56297;SDS011;42208;6.376;-10.782;2022-12-07T03:26:20;51.13;;;29.10;;
56297;SDS011;42208;6.376;-10.782;2022-12-07T03:31:26;49.50;;;29.40;;
56297;SDS011;42208;6.376;-10.782;2022-12-07T03:34:04;45.10;;;26.20;;
56297;SDS011;42208;6.376;-10.782;2022-12-07T03:36:47;42.83;;;26.73;;
56297;SDS011;42208;6.376;-10.782;2022-12-07T03:39:40;47.38;;;28.15;;
56297;SDS011;42208;6.376;-10.782;2022-12-07T03:42:25;50.22;;;27.77;;
56297;SDS011;42208;6.376;-10.782;2022-12-07T03:44:53;45.55;;;26.13;;
56297;SDS011;42208;6.376;-10.782;2022-12-07T03:50:06;43.55;;;27.13;;
56297;SDS011;42208;6.376;-10.782;2022-12-07T03:52:58;51.72;;;27.25;;
56297;SDS011;42208;6.376;-10.782;2022-12-07T03:55:32;54.35;;;27.92;;
56297;SDS011;42208;6.376;-10.782;2022-12-07T03:58:08;49.10;;;28.65;;
56297;SDS011;42208;6.376;-10.782;2022-12-07T04:00:43;50.08;;;26.27;;
56297;SDS011;42208;6.376;-10.782;2022-12-07T04:03:12;51.22;;;28.15;;
56297;SDS011;42208;6.376;-10.782;2022-12-07T04:05:40;47.20;;;26.85;;
56297;SDS011;42208;6.376;-10.782;2022-12-07T04:08:09;41.22;;;24.77;;
56297;SDS011;42208;6.376;-10.782;2022-12-07T04:10:38;43.10;;;26.83;;
56297;SDS011;42208;6.376;-10.782;2022-12-07T04:13:06;50.45;;;27.27;;
56297;SDS011;42208;6.376;-10.782;2022-12-07T04:15:34;53.20;;;27.45;;
56297;SDS011;42208;6.376;-10.782;2022-12-07T04:18:03;55.63;;;27.17;;
56297;SDS011;42208;6.376;-10.782;2022-12-07T04:20:31;46.13;;;24.77;;
56297;SDS011;42208;6.376;-10.782;2022-12-07T04:23:00;37.80;;;23.02;;
56297;SDS011;42208;6.376;-10.782;2022-12-07T04:25:28;38.20;;;24.48;;
56297;SDS011;42208;6.376;-10.782;2022-12-07T04:27:56;40.28;;;24.70;;
56297;SDS011;42208;6.376;-10.782;2022-12-07T04:30:25;52.88;;;26.27;;
56297;SDS011;42208;6.376;-10.782;2022-12-07T04:32:53;44.72;;;25.42;;
56297;SDS011;42208;6.376;-10.782;2022-12-07T04:35:21;40.58;;;26.08;;
56297;SDS011;42208;6.376;-10.782;2022-12-07T04:37:49;48.35;;;25.25;;
56297;SDS011;42208;6.376;-10.782;2022-12-07T04:40:18;47.55;;;23.75;;
56297;SDS011;42208;6.376;-10.782;2022-12-07T04:42:46;43.33;;;26.45;;
56297;SDS011;42208;6.376;-10.782;2022-12-07T04:45:14;48.75;;;26.48;;
56297;SDS011;42208;6.376;-10.782;2022-12-07T04:47:42;39.00;;;23.90;;
56297;SDS011;42208;6.376;-10.782;2022-12-07T04:50:11;44.42;;;26.20;;
56297;SDS011;42208;6.376;-10.782;2022-12-07T04:52:39;42.58;;;24.10;;
56297;SDS011;42208;6.376;-10.782;2022-12-07T04:55:08;44.30;;;23.92;;
56297;SDS011;42208;6.376;-10.782;2022-12-07T04:57:36;43.92;;;25.70;;
56297;SDS011;42208;6.376;-10.782;2022-12-07T05:00:05;44.60;;;25.02;;
56297;SDS011;42208;6.376;-10.782;2022-12-07T05:02:33;43.58;;;25.40;;
56297;SDS011;42208;6.376;-10.782;2022-12-07T05:05:02;45.88;;;26.70;;
56297;SDS011;42208;6.376;-10.782;2022-12-07T05:07:30;46.50;;;28.25;;
56297;SDS011;42208;6.376;-10.782;2022-12-07T05:09:58;43.72;;;28.23;;
56297;SDS011;42208;6.376;-10.782;2022-12-07T05:12:27;41.97;;;25.20;;
56297;SDS011;42208;6.376;-10.782;2022-12-07T05:14:55;41.17;;;26.48;;
56297;SDS011;42208;6.376;-10.782;2022-12-07T05:17:24;43.90;;;26.75;;
56297;SDS011;42208;6.376;-10.782;2022-12-07T05:19:52;42.83;;;25.77;;
56297;SDS011;42208;6.376;-10.782;2022-12-07T05:22:20;49.45;;;26.48;;
56297;SDS011;42208;6.376;-10.782;2022-12-07T05:24:50;50.67;;;25.38;;
56297;SDS011;42208;6.376;-10.782;2022-12-07T05:27:18;36.10;;;24.88;;
56297;SDS011;42208;6.376;-10.782;2022-12-07T05:29:47;42.90;;;24.55;;
56297;SDS011;42208;6.376;-10.782;2022-12-07T05:32:17;46.05;;;27.30;;
56297;SDS011;42208;6.376;-10.782;2022-12-07T05:34:48;42.83;;;25.85;;
56297;SDS011;42208;6.376;-10.782;2022-12-07T05:37:16;49.47;;;26.45;;
56297;SDS011;42208;6.376;-10.782;2022-12-07T05:39:45;42.63;;;26.70;;
56297;SDS011;42208;6.376;-10.782;2022-12-07T05:42:13;39.47;;;24.75;;
56297;SDS011;42208;6.376;-10.782;2022-12-07T05:44:42;41.28;;;25.38;;
56297;SDS011;42208;6.376;-10.782;2022-12-07T05:47:14;44.35;;;25.20;;
56297;SDS011;42208;6.376;-10.782;2022-12-07T05:49:42;51.17;;;25.83;;
56297;SDS011;42208;6.376;-10.782;2022-12-07T05:52:11;42.35;;;24.50;;
56297;SDS011;42208;6.376;-10.782;2022-12-07T05:54:39;46.50;;;24.73;;
56297;SDS011;42208;6.376;-10.782;2022-12-07T05:57:07;43.00;;;23.98;;
56297;SDS011;42208;6.376;-10.782;2022-12-07T05:59:36;40.25;;;24.02;;
56297;SDS011;42208;6.376;-10.782;2022-12-07T06:02:05;38.65;;;23.38;;
56297;SDS011;42208;6.376;-10.782;2022-12-07T06:07:06;32.08;;;21.33;;
56297;SDS011;42208;6.376;-10.782;2022-12-07T06:09:36;36.83;;;22.30;;
56297;SDS011;42208;6.376;-10.782;2022-12-07T06:12:05;38.05;;;22.08;;
56297;SDS011;42208;6.376;-10.782;2022-12-07T06:14:34;36.55;;;22.23;;
56297;SDS011;42208;6.376;-10.782;2022-12-07T06:17:03;36.75;;;22.58;;
56297;SDS011;42208;6.376;-10.782;2022-12-07T06:19:32;40.53;;;23.33;;
56297;SDS011;42208;6.376;-10.782;2022-12-07T06:22:01;50.40;;;25.42;;
56297;SDS011;42208;6.376;-10.782;2022-12-07T06:24:30;43.15;;;24.67;;
56297;SDS011;42208;6.376;-10.782;2022-12-07T06:26:59;44.60;;;24.30;;
56297;SDS011;42208;6.376;-10.782;2022-12-07T06:29:27;55.80;;;25.23;;
56297;SDS011;42208;6.376;-10.782;2022-12-07T06:31:56;51.30;;;25.05;;
56297;SDS011;42208;6.376;-10.782;2022-12-07T06:34:25;43.13;;;22.98;;
56297;SDS011;42208;6.376;-10.782;2022-12-07T06:36:54;50.58;;;24.85;;
56297;SDS011;42208;6.376;-10.782;2022-12-07T06:39:26;47.13;;;23.65;;
56297;SDS011;42208;6.376;-10.782;2022-12-07T06:41:55;41.38;;;22.35;;
56297;SDS011;42208;6.376;-10.782;2022-12-07T06:44:24;43.85;;;23.33;;
56297;SDS011;42208;6.376;-10.782;2022-12-07T06:46:53;41.40;;;24.25;;
56297;SDS011;42208;6.376;-10.782;2022-12-07T06:49:41;43.28;;;24.83;;
56297;SDS011;42208;6.376;-10.782;2022-12-07T06:52:10;46.60;;;24.85;;
56297;SDS011;42208;6.376;-10.782;2022-12-07T06:54:38;43.40;;;23.35;;
56297;SDS011;42208;6.376;-10.782;2022-12-07T06:57:07;49.53;;;22.98;;
56297;SDS011;42208;6.376;-10.782;2022-12-07T06:59:35;41.67;;;22.98;;
56297;SDS011;42208;6.376;-10.782;2022-12-07T07:02:03;46.42;;;22.67;;
56297;SDS011;42208;6.376;-10.782;2022-12-07T07:04:32;42.15;;;20.92;;
56297;SDS011;42208;6.376;-10.782;2022-12-07T07:07:00;43.63;;;22.38;;
56297;SDS011;42208;6.376;-10.782;2022-12-07T07:09:29;35.47;;;20.58;;
56297;SDS011;42208;6.376;-10.782;2022-12-07T07:11:57;38.85;;;23.35;;
56297;SDS011;42208;6.376;-10.782;2022-12-07T07:14:25;41.75;;;22.65;;
56297;SDS011;42208;6.376;-10.782;2022-12-07T07:17:01;42.65;;;21.38;;
56297;SDS011;42208;6.376;-10.782;2022-12-07T07:19:29;33.90;;;21.25;;
56297;SDS011;42208;6.376;-10.782;2022-12-07T07:21:58;43.97;;;22.08;;
56297;SDS011;42208;6.376;-10.782;2022-12-07T07:24:26;38.70;;;21.98;;
56297;SDS011;42208;6.376;-10.782;2022-12-07T07:26:56;39.78;;;22.30;;
56297;SDS011;42208;6.376;-10.782;2022-12-07T07:29:25;43.13;;;22.73;;
56297;SDS011;42208;6.376;-10.782;2022-12-07T07:31:54;41.95;;;21.73;;
56297;SDS011;42208;6.376;-10.782;2022-12-07T07:34:25;42.17;;;22.77;;
56297;SDS011;42208;6.376;-10.782;2022-12-07T07:36:53;40.05;;;22.60;;
56297;SDS011;42208;6.376;-10.782;2022-12-07T07:39:22;40.33;;;23.23;;
56297;SDS011;42208;6.376;-10.782;2022-12-07T07:41:50;32.47;;;20.50;;
56297;SDS011;42208;6.376;-10.782;2022-12-07T07:44:24;34.90;;;21.20;;
56297;SDS011;42208;6.376;-10.782;2022-12-07T07:47:00;39.47;;;23.13;;
56297;SDS011;42208;6.376;-10.782;2022-12-07T07:49:29;49.33;;;26.85;;
56297;SDS011;42208;6.376;-10.782;2022-12-07T07:51:58;43.63;;;26.13;;
56297;SDS011;42208;6.376;-10.782;2022-12-07T07:54:26;46.88;;;27.23;;
56297;SDS011;42208;6.376;-10.782;2022-12-07T07:56:56;44.15;;;21.40;;
56297;SDS011;42208;6.376;-10.782;2022-12-07T07:59:25;39.42;;;21.40;;
56297;SDS011;42208;6.376;-10.782;2022-12-07T08:01:53;42.40;;;21.63;;
56297;SDS011;42208;6.376;-10.782;2022-12-07T08:04:21;29.55;;;19.50;;
56297;SDS011;42208;6.376;-10.782;2022-12-07T08:06:50;33.45;;;19.48;;
56297;SDS011;42208;6.376;-10.782;2022-12-07T08:09:18;31.98;;;18.83;;
56297;SDS011;42208;6.376;-10.782;2022-12-07T08:11:47;34.28;;;19.30;;
56297;SDS011;42208;6.376;-10.782;2022-12-07T08:14:15;32.20;;;19.38;;
56297;SDS011;42208;6.376;-10.782;2022-12-07T08:22:27;36.70;;;19.77;;
56297;SDS011;42208;6.376;-10.782;2022-12-07T08:24:55;35.97;;;19.63;;
56297;SDS011;42208;6.376;-10.782;2022-12-07T08:27:24;33.60;;;17.73;;
56297;SDS011;42208;6.376;-10.782;2022-12-07T08:29:52;32.28;;;16.95;;
56297;SDS011;42208;6.376;-10.782;2022-12-07T08:32:20;38.25;;;20.50;;
56297;SDS011;42208;6.376;-10.782;2022-12-07T08:34:49;29.45;;;18.92;;
56297;SDS011;42208;6.376;-10.782;2022-12-07T08:37:19;33.13;;;19.77;;
56297;SDS011;42208;6.376;-10.782;2022-12-07T08:39:47;29.20;;;17.00;;
56297;SDS011;42208;6.376;-10.782;2022-12-07T08:42:16;27.65;;;15.98;;
56297;SDS011;42208;6.376;-10.782;2022-12-07T08:44:45;34.85;;;19.42;;
56297;SDS011;42208;6.376;-10.782;2022-12-07T08:47:14;36.65;;;18.20;;
56297;SDS011;42208;6.376;-10.782;2022-12-07T08:49:43;29.60;;;15.20;;
56297;SDS011;42208;6.376;-10.782;2022-12-07T08:52:15;29.40;;;15.75;;
56297;SDS011;42208;6.376;-10.782;2022-12-07T08:54:43;26.08;;;15.20;;
56297;SDS011;42208;6.376;-10.782;2022-12-07T08:57:12;23.85;;;14.90;;
56297;SDS011;42208;6.376;-10.782;2022-12-07T08:59:41;33.50;;;16.48;;
56297;SDS011;42208;6.376;-10.782;2022-12-07T09:02:09;77.32;;;26.17;;
56297;SDS011;42208;6.376;-10.782;2022-12-07T09:04:38;27.10;;;14.32;;
56297;SDS011;42208;6.376;-10.782;2022-12-07T09:07:06;29.30;;;14.85;;
56297;SDS011;42208;6.376;-10.782;2022-12-07T09:09:36;26.98;;;12.65;;
56297;SDS011;42208;6.376;-10.782;2022-12-07T09:12:05;23.27;;;12.70;;
56297;SDS011;42208;6.376;-10.782;2022-12-07T09:14:33;27.85;;;12.35;;
56297;SDS011;42208;6.376;-10.782;2022-12-07T09:17:09;28.55;;;12.85;;
56297;SDS011;42208;6.376;-10.782;2022-12-07T09:19:38;24.13;;;11.55;;
56297;SDS011;42208;6.376;-10.782;2022-12-07T09:22:07;30.85;;;12.20;;
56297;SDS011;42208;6.376;-10.782;2022-12-07T09:24:36;26.42;;;11.85;;
56297;SDS011;42208;6.376;-10.782;2022-12-07T09:27:04;25.75;;;10.82;;
56297;SDS011;42208;6.376;-10.782;2022-12-07T09:29:33;20.08;;;10.98;;
56297;SDS011;42208;6.376;-10.782;2022-12-07T09:32:01;23.50;;;12.02;;
56297;SDS011;42208;6.376;-10.782;2022-12-07T09:34:38;18.00;;;10.50;;
56297;SDS011;42208;6.376;-10.782;2022-12-07T09:37:06;26.33;;;12.80;;
56297;SDS011;42208;6.376;-10.782;2022-12-07T09:39:37;27.80;;;14.07;;
56297;SDS011;42208;6.376;-10.782;2022-12-07T09:42:26;32.50;;;14.05;;
56297;SDS011;42208;6.376;-10.782;2022-12-07T09:45:02;23.45;;;13.90;;
56297;SDS011;42208;6.376;-10.782;2022-12-07T09:47:35;24.35;;;10.48;;
56297;SDS011;42208;6.376;-10.782;2022-12-07T09:50:05;24.80;;;11.05;;
56297;SDS011;42208;6.376;-10.782;2022-12-07T09:52:39;31.20;;;12.77;;
56297;SDS011;42208;6.376;-10.782;2022-12-07T09:55:29;23.73;;;12.87;;
56297;SDS011;42208;6.376;-10.782;2022-12-07T09:57:58;26.15;;;12.80;;
56297;SDS011;42208;6.376;-10.782;2022-12-07T10:00:27;26.35;;;10.20;;
56297;SDS011;42208;6.376;-10.782;2022-12-07T10:03:00;21.52;;;10.32;;
56297;SDS011;42208;6.376;-10.782;2022-12-07T10:05:36;17.33;;;8.77;;
56297;SDS011;42208;6.376;-10.782;2022-12-07T10:08:12;19.08;;;9.32;;
56297;SDS011;42208;6.376;-10.782;2022-12-07T10:10:41;17.33;;;8.20;;
56297;SDS011;42208;6.376;-10.782;2022-12-07T10:13:11;22.25;;;8.93;;
56297;SDS011;42208;6.376;-10.782;2022-12-07T10:15:52;15.43;;;7.93;;
56297;SDS011;42208;6.376;-10.782;2022-12-07T10:18:31;27.75;;;7.60;;
56297;SDS011;42208;6.376;-10.782;2022-12-07T10:23:41;16.15;;;7.30;;
56297;SDS011;42208;6.376;-10.782;2022-12-07T10:29:17;26.85;;;8.27;;
56297;SDS011;42208;6.376;-10.782;2022-12-07T10:31:54;23.52;;;7.95;;
56297;SDS011;42208;6.376;-10.782;2022-12-07T10:37:20;20.90;;;8.70;;
56297;SDS011;42208;6.376;-10.782;2022-12-07T10:39:51;27.00;;;9.02;;
56297;SDS011;42208;6.376;-10.782;2022-12-07T10:42:30;18.05;;;7.68;;
56297;SDS011;42208;6.376;-10.782;2022-12-07T10:56:07;13.70;;;7.32;;
56297;SDS011;42208;6.376;-10.782;2022-12-07T10:59:18;20.95;;;7.72;;
56297;SDS011;42208;6.376;-10.782;2022-12-07T11:02:25;16.15;;;7.40;;
56297;SDS011;42208;6.376;-10.782;2022-12-07T11:08:05;21.70;;;7.63;;
56297;SDS011;42208;6.376;-10.782;2022-12-07T11:24:29;23.40;;;9.15;;
56297;SDS011;42208;6.376;-10.782;2022-12-07T11:30:11;16.48;;;8.65;;
56297;SDS011;42208;6.376;-10.782;2022-12-07T11:33:20;21.25;;;8.98;;
56297;SDS011;42208;6.376;-10.782;2022-12-07T11:36:02;18.23;;;8.63;;
56297;SDS011;42208;6.376;-10.782;2022-12-07T11:39:03;25.08;;;8.68;;
56297;SDS011;42208;6.376;-10.782;2022-12-07T11:41:54;19.65;;;8.25;;
56297;SDS011;42208;6.376;-10.782;2022-12-07T11:52:49;20.85;;;7.65;;
56297;SDS011;42208;6.376;-10.782;2022-12-07T11:57:58;25.35;;;8.30;;
56297;SDS011;42208;6.376;-10.782;2022-12-07T12:00:39;29.77;;;9.55;;
56297;SDS011;42208;6.376;-10.782;2022-12-07T12:03:09;21.38;;;8.50;;
56297;SDS011;42208;6.376;-10.782;2022-12-07T12:05:43;18.27;;;8.82;;
56297;SDS011;42208;6.376;-10.782;2022-12-07T12:08:18;18.87;;;7.80;;
56297;SDS011;42208;6.376;-10.782;2022-12-07T12:17:10;20.95;;;8.02;;
56297;SDS011;42208;6.376;-10.782;2022-12-07T12:19:59;19.92;;;8.52;;
56297;SDS011;42208;6.376;-10.782;2022-12-07T12:25:42;29.52;;;8.43;;
56297;SDS011;42208;6.376;-10.782;2022-12-07T12:28:22;19.95;;;8.20;;
56297;SDS011;42208;6.376;-10.782;2022-12-07T12:33:59;19.33;;;9.07;;
56297;SDS011;42208;6.376;-10.782;2022-12-07T12:39:18;24.63;;;8.80;;
56297;SDS011;42208;6.376;-10.782;2022-12-07T12:52:01;24.55;;;8.05;;
56297;SDS011;42208;6.376;-10.782;2022-12-07T12:57:37;17.40;;;7.55;;
56297;SDS011;42208;6.376;-10.782;2022-12-07T13:00:15;24.60;;;7.68;;
56297;SDS011;42208;6.376;-10.782;2022-12-07T13:02:53;29.25;;;7.78;;
56297;SDS011;42208;6.376;-10.782;2022-12-07T13:05:24;15.77;;;7.13;;
56297;SDS011;42208;6.376;-10.782;2022-12-07T13:07:56;17.60;;;7.38;;
56297;SDS011;42208;6.376;-10.782;2022-12-07T13:18:38;18.13;;;7.90;;
56297;SDS011;42208;6.376;-10.782;2022-12-07T13:39:47;20.15;;;7.82;;
56297;SDS011;42208;6.376;-10.782;2022-12-07T13:48:08;21.08;;;8.68;;
56297;SDS011;42208;6.376;-10.782;2022-12-07T13:53:28;15.27;;;7.20;;
56297;SDS011;42208;6.376;-10.782;2022-12-07T13:55:59;19.88;;;6.50;;
56297;SDS011;42208;6.376;-10.782;2022-12-07T13:58:30;22.63;;;7.32;;
56297;SDS011;42208;6.376;-10.782;2022-12-07T14:00:59;28.75;;;8.98;;
56297;SDS011;42208;6.376;-10.782;2022-12-07T14:03:29;15.77;;;6.18;;
56297;SDS011;42208;6.376;-10.782;2022-12-07T14:06:10;20.75;;;7.82;;
56297;SDS011;42208;6.376;-10.782;2022-12-07T14:08:42;26.58;;;7.65;;
56297;SDS011;42208;6.376;-10.782;2022-12-07T14:11:13;22.98;;;8.52;;
56297;SDS011;42208;6.376;-10.782;2022-12-07T14:16:34;19.50;;;9.20;;
56297;SDS011;42208;6.376;-10.782;2022-12-07T14:19:06;29.73;;;8.50;;
56297;SDS011;42208;6.376;-10.782;2022-12-07T14:22:33;23.48;;;7.07;;
56297;SDS011;42208;6.376;-10.782;2022-12-07T14:25:15;27.98;;;7.13;;
56297;SDS011;42208;6.376;-10.782;2022-12-07T14:30:24;21.38;;;7.07;;
56297;SDS011;42208;6.376;-10.782;2022-12-07T14:32:57;21.20;;;6.93;;
56297;SDS011;42208;6.376;-10.782;2022-12-07T14:35:29;11.52;;;6.43;;
56297;SDS011;42208;6.376;-10.782;2022-12-07T14:38:04;29.13;;;9.10;;
56297;SDS011;42208;6.376;-10.782;2022-12-07T14:40:32;41.85;;;10.68;;
56297;SDS011;42208;6.376;-10.782;2022-12-07T14:43:02;19.15;;;8.02;;
56297;SDS011;42208;6.376;-10.782;2022-12-07T14:45:51;26.75;;;8.20;;
56297;SDS011;42208;6.376;-10.782;2022-12-07T14:48:19;28.42;;;7.82;;
56297;SDS011;42208;6.376;-10.782;2022-12-07T14:51:08;22.38;;;6.93;;
56297;SDS011;42208;6.376;-10.782;2022-12-07T14:53:59;20.65;;;11.10;;
56297;SDS011;42208;6.376;-10.782;2022-12-07T14:56:42;22.08;;;7.38;;
56297;SDS011;42208;6.376;-10.782;2022-12-07T14:59:11;21.77;;;7.30;;
56297;SDS011;42208;6.376;-10.782;2022-12-07T15:01:40;19.08;;;8.18;;
56297;SDS011;42208;6.376;-10.782;2022-12-07T15:04:08;40.25;;;11.30;;
56297;SDS011;42208;6.376;-10.782;2022-12-07T15:06:36;18.92;;;7.90;;
56297;SDS011;42208;6.376;-10.782;2022-12-07T15:09:05;30.85;;;11.27;;
56297;SDS011;42208;6.376;-10.782;2022-12-07T15:11:33;25.73;;;6.97;;
56297;SDS011;42208;6.376;-10.782;2022-12-07T15:14:10;20.75;;;5.80;;
56297;SDS011;42208;6.376;-10.782;2022-12-07T15:16:40;11.90;;;5.97;;
56297;SDS011;42208;6.376;-10.782;2022-12-07T15:19:31;27.83;;;15.20;;
56297;SDS011;42208;6.376;-10.782;2022-12-07T15:21:59;54.67;;;21.65;;
56297;SDS011;42208;6.376;-10.782;2022-12-07T15:24:28;31.50;;;8.52;;
56297;SDS011;42208;6.376;-10.782;2022-12-07T15:26:57;24.25;;;7.43;;
56297;SDS011;42208;6.376;-10.782;2022-12-07T15:29:26;18.83;;;5.88;;
56297;SDS011;42208;6.376;-10.782;2022-12-07T15:31:55;21.13;;;7.85;;
56297;SDS011;42208;6.376;-10.782;2022-12-07T15:34:25;43.30;;;7.97;;
56297;SDS011;42208;6.376;-10.782;2022-12-07T15:37:00;26.83;;;8.05;;
56297;SDS011;42208;6.376;-10.782;2022-12-07T15:39:29;28.00;;;6.35;;
56297;SDS011;42208;6.376;-10.782;2022-12-07T15:41:58;33.55;;;6.38;;
56297;SDS011;42208;6.376;-10.782;2022-12-07T15:44:26;22.05;;;5.57;;
56297;SDS011;42208;6.376;-10.782;2022-12-07T15:46:57;20.13;;;9.35;;
56297;SDS011;42208;6.376;-10.782;2022-12-07T15:49:26;33.10;;;13.27;;
56297;SDS011;42208;6.376;-10.782;2022-12-07T15:51:54;44.78;;;19.23;;
56297;SDS011;42208;6.376;-10.782;2022-12-07T15:54:24;46.95;;;15.15;;
56297;SDS011;42208;6.376;-10.782;2022-12-07T15:56:55;21.77;;;10.57;;
56297;SDS011;42208;6.376;-10.782;2022-12-07T15:59:25;28.65;;;11.50;;
56297;SDS011;42208;6.376;-10.782;2022-12-07T16:01:55;38.90;;;17.70;;
56297;SDS011;42208;6.376;-10.782;2022-12-07T16:04:26;32.63;;;11.93;;
56297;SDS011;42208;6.376;-10.782;2022-12-07T16:06:57;29.98;;;9.50;;
56297;SDS011;42208;6.376;-10.782;2022-12-07T16:09:25;24.02;;;10.85;;
56297;SDS011;42208;6.376;-10.782;2022-12-07T16:11:54;28.45;;;11.45;;
56297;SDS011;42208;6.376;-10.782;2022-12-07T16:14:22;22.90;;;10.98;;
56297;SDS011;42208;6.376;-10.782;2022-12-07T16:16:51;48.65;;;18.90;;
56297;SDS011;42208;6.376;-10.782;2022-12-07T16:19:20;27.58;;;8.93;;
56297;SDS011;42208;6.376;-10.782;2022-12-07T16:21:49;30.85;;;11.93;;
56297;SDS011;42208;6.376;-10.782;2022-12-07T16:24:19;32.55;;;13.90;;
56297;SDS011;42208;6.376;-10.782;2022-12-07T16:26:47;19.48;;;9.25;;
56297;SDS011;42208;6.376;-10.782;2022-12-07T16:29:17;31.92;;;12.95;;
56297;SDS011;42208;6.376;-10.782;2022-12-07T16:31:47;32.97;;;12.50;;
56297;SDS011;42208;6.376;-10.782;2022-12-07T16:34:16;30.23;;;11.18;;
56297;SDS011;42208;6.376;-10.782;2022-12-07T16:36:46;35.65;;;12.23;;
56297;SDS011;42208;6.376;-10.782;2022-12-07T16:39:32;22.73;;;7.32;;
56297;SDS011;42208;6.376;-10.782;2022-12-07T16:44:32;30.83;;;12.20;;
56297;SDS011;42208;6.376;-10.782;2022-12-07T16:47:00;17.55;;;7.93;;
56297;SDS011;42208;6.376;-10.782;2022-12-07T16:49:29;51.30;;;15.90;;
56297;SDS011;42208;6.376;-10.782;2022-12-07T16:51:57;35.30;;;12.32;;
56297;SDS011;42208;6.376;-10.782;2022-12-07T16:54:46;32.03;;;13.02;;
56297;SDS011;42208;6.376;-10.782;2022-12-07T16:57:16;38.58;;;11.23;;
56297;SDS011;42208;6.376;-10.782;2022-12-07T16:59:50;13.60;;;7.28;;
56297;SDS011;42208;6.376;-10.782;2022-12-07T17:02:19;31.60;;;12.05;;
56297;SDS011;42208;6.376;-10.782;2022-12-07T17:04:48;30.58;;;12.40;;
56297;SDS011;42208;6.376;-10.782;2022-12-07T17:07:19;26.17;;;11.70;;
56297;SDS011;42208;6.376;-10.782;2022-12-07T17:09:47;30.27;;;11.73;;
56297;SDS011;42208;6.376;-10.782;2022-12-07T17:12:16;44.83;;;18.98;;
56297;SDS011;42208;6.376;-10.782;2022-12-07T17:14:45;50.50;;;18.90;;
56297;SDS011;42208;6.376;-10.782;2022-12-07T17:17:13;40.40;;;13.60;;
56297;SDS011;42208;6.376;-10.782;2022-12-07T17:19:41;30.85;;;9.60;;
56297;SDS011;42208;6.376;-10.782;2022-12-07T17:22:10;32.28;;;9.27;;
56297;SDS011;42208;6.376;-10.782;2022-12-07T17:24:39;21.75;;;9.30;;
56297;SDS011;42208;6.376;-10.782;2022-12-07T17:27:08;35.42;;;9.35;;
56297;SDS011;42208;6.376;-10.782;2022-12-07T17:29:36;39.50;;;12.18;;